Météo Nord-Pas-de-Calais   La météo au plus près de chez vous

Station météorologique

Observations météo à Avord (18092)

18092001 175 m Dernier relevé à 16:30
23.6°C
Humidité 64 % Vent 40.3 km/h 1020 hPa

Journée consultée

Lundi 31 Août 2026

Synthèse de la journée

Périodes de référence en UTC

Température maximale

24.8°C

à 15:00

06h 06h

Température minimale

15.8°C

à 05:30

18h 18h

Rafale maximale

52 km/h

à 15:06

00h 00h

Précipitations

0.2 mm

Cumul quotidien

06h 06h

Graphiques de la journée

Heure locale Réduire

Données détaillées

Relevés météo

Pas de 6 minutes Afficher les relevés infra-horaires
Relevés météo détaillés à Avord pour le Lundi 31 Août 2026
Heure Température °C Point de rosée °C Humidité % Vent moyen (raf.), km/h Précipitations mm Température à 10 cm °C Température à 20 cm °C Température à 50 cm °C Température à 100 cm °C Visibilité m Pression hPa Nébulosité Octas
16:30 23.6 °C 14 °C 55 % 30 km/h (40 km/h) 0 mm0 mm 21.1 °C 21.3 °C 21.7 °C 21.5 °C 18710 m 1019.8 hPa
16:24 23.6 °C 13.7 °C 54 % 29 km/h (38 km/h) 0 mm0 mm 21.1 °C 21.3 °C 21.7 °C 21.5 °C 19160 m 1019.8 hPa
16:18 23.4 °C 14.7 °C 58 % 28 km/h (39 km/h) 0 mm0 mm 21 °C 21.3 °C 21.7 °C 21.5 °C 19760 m 1019.9 hPa
16:12 22.6 °C 13.9 °C 58 % 27 km/h (39 km/h) 0 mm0 mm 21 °C 21.3 °C 21.7 °C 21.5 °C 20120 m 1020 hPa
16:06 23.3 °C 14.8 °C 59 % 28 km/h (37 km/h) 0 mm0 mm 21 °C 21.2 °C 21.7 °C 21.6 °C 20660 m 1019.8 hPa
16:00 22.5 °C 14.1 °C 59 % 29 km/h (40 km/h) 0 mm0 mm 21 °C 21.3 °C 21.7 °C 21.6 °C 21260 m 1019.9 hPa 7 Octas
15:54 22.6 °C 14.4 °C 60 % 30 km/h (40 km/h) 0 mm0 mm 21 °C 21.2 °C 21.7 °C 21.6 °C 21690 m 1020 hPa
15:48 22.1 °C 14.5 °C 62 % 31 km/h (45 km/h) 0 mm0 mm 21 °C 21.2 °C 21.7 °C 21.6 °C 21990 m 1020 hPa
15:42 21.9 °C 14.5 °C 63 % 33 km/h (45 km/h) 0 mm0 mm 21 °C 21.2 °C 21.7 °C 21.5 °C 22230 m 1020 hPa
15:36 21.7 °C 14.6 °C 64 % 37 km/h (50 km/h) 0 mm0 mm 20.9 °C 21.2 °C 21.7 °C 21.6 °C 19490 m 1020.1 hPa
15:30 21.7 °C 14.6 °C 64 % 40 km/h (51 km/h) 0 mm0 mm 20.9 °C 21.2 °C 21.7 °C 21.5 °C 19490 m 1020 hPa
15:24 22.2 °C 14.1 °C 60 % 35 km/h (51 km/h) 0 mm0 mm 20.9 °C 21.2 °C 21.7 °C 21.6 °C 22520 m 1019.9 hPa
15:18 23.1 °C 13.8 °C 56 % 32 km/h (42 km/h) 0 mm0 mm 20.8 °C 21.2 °C 21.7 °C 21.6 °C 22600 m 1019.7 hPa
15:12 22.2 °C 14.6 °C 62 % 36 km/h (52 km/h) 0 mm0 mm 20.8 °C 21.2 °C 21.7 °C 21.6 °C 18060 m 1019.8 hPa
15:06 22.6 °C 13.9 °C 58 % 38 km/h (52 km/h) 0 mm0 mm 20.8 °C 21.2 °C 21.7 °C 21.5 °C 21980 m 1019.8 hPa
15:00 23.3 °C 13.5 °C 54 % 31 km/h (44 km/h) 0 mm0 mm 20.8 °C 21.2 °C 21.7 °C 21.6 °C 17040 m 1019.6 hPa 6 Octas
14:54 23.2 °C 13.4 °C 54 % 31 km/h (45 km/h) 0 mm0 mm 20.8 °C 21.2 °C 21.7 °C 21.6 °C 11910 m 1019.5 hPa
14:48 23.8 °C 13.1 °C 51 % 33 km/h (45 km/h) 0 mm0 mm 20.7 °C 21.2 °C 21.7 °C 21.6 °C 11450 m 1019.4 hPa
14:42 24.4 °C 13.6 °C 51 % 33 km/h (48 km/h) 0 mm0 mm 20.7 °C 21.1 °C 21.7 °C 21.5 °C 11700 m 1019.2 hPa
14:36 24.3 °C 13.8 °C 52 % 32 km/h (48 km/h) 0 mm0 mm 20.7 °C 21.1 °C 21.7 °C 21.6 °C 11850 m 1019.2 hPa
14:30 24.4 °C 13.9 °C 52 % 32 km/h (44 km/h) 0 mm0 mm 20.7 °C 21.1 °C 21.7 °C 21.6 °C 11890 m 1019.2 hPa
14:24 24.3 °C 14.7 °C 55 % 32 km/h (41 km/h) 0 mm0 mm 20.7 °C 21.1 °C 21.7 °C 21.6 °C 11880 m 1019.1 hPa
14:18 23.8 °C 14.8 °C 57 % 30 km/h (41 km/h) 0 mm0 mm 20.6 °C 21.1 °C 21.7 °C 21.6 °C 11970 m 1019.3 hPa
14:12 23.3 °C 14 °C 56 % 29 km/h (40 km/h) 0 mm0 mm 20.6 °C 21.1 °C 21.7 °C 21.6 °C 12250 m 1019.3 hPa
14:06 23.7 °C 15.5 °C 60 % 29 km/h (40 km/h) 0 mm0 mm 20.6 °C 21.1 °C 21.7 °C 21.6 °C 12370 m 1019.4 hPa
14:00 22.6 °C 14.7 °C 61 % 28 km/h (36 km/h) 0 mm0 mm 20.6 °C 21.1 °C 21.7 °C 21.6 °C 12390 m 1019.5 hPa
13:54 23 °C 15.6 °C 63 % 28 km/h (34 km/h) 0 mm0 mm 20.6 °C 21.1 °C 21.7 °C 21.6 °C 12420 m 1019.4 hPa
13:48 21.9 °C 15 °C 65 % 28 km/h (35 km/h) 0 mm0 mm 20.5 °C 21.1 °C 21.8 °C 21.6 °C 12350 m 1019.5 hPa
13:42 20.9 °C 14.5 °C 67 % 30 km/h (41 km/h) 0 mm0 mm 20.5 °C 21.1 °C 21.7 °C 21.5 °C 12320 m 1019.7 hPa
13:36 21 °C 14.4 °C 66 % 31 km/h (45 km/h) 0 mm0 mm 20.5 °C 21.1 °C 21.7 °C 21.5 °C 12220 m 1019.8 hPa
13:30 22 °C 14.9 °C 64 % 28 km/h (45 km/h) 0 mm0 mm 20.5 °C 21.1 °C 21.8 °C 21.6 °C 12140 m 1019.6 hPa
13:24 21.7 °C 15.5 °C 68 % 28 km/h (37 km/h) 0 mm0 mm 20.5 °C 21.1 °C 21.8 °C 21.6 °C 12180 m 1019.5 hPa
13:18 22.3 °C 14.9 °C 63 % 26 km/h (37 km/h) 0 mm0 mm 20.5 °C 21.1 °C 21.7 °C 21.6 °C 12170 m 1019.5 hPa
13:12 21.5 °C 14.4 °C 64 % 25 km/h (37 km/h) 0 mm0 mm 20.4 °C 21.1 °C 21.7 °C 21.6 °C 12130 m 1019.6 hPa
13:06 21.9 °C 15.7 °C 68 % 24 km/h (36 km/h) 0 mm0 mm 20.4 °C 21.1 °C 21.7 °C 21.6 °C 12140 m 1019.6 hPa
13:00 21.4 °C 15.2 °C 68 % 28 km/h (39 km/h) 0 mm0 mm 20.4 °C 21.1 °C 21.8 °C 21.6 °C 12210 m 1019.6 hPa 7 Octas
12:54 21.7 °C 15.8 °C 69 % 30 km/h (39 km/h) 0 mm0 mm 20.4 °C 21.1 °C 21.8 °C 21.6 °C 12320 m 1019.6 hPa
12:48 21.6 °C 14.7 °C 65 % 29 km/h (39 km/h) 0 mm0 mm 20.4 °C 21.1 °C 21.8 °C 21.6 °C 12410 m 1019.6 hPa
12:42 21.3 °C 14.7 °C 66 % 31 km/h (39 km/h) 0 mm0 mm 20.4 °C 21.1 °C 21.8 °C 21.5 °C 12560 m 1019.6 hPa
12:36 21.8 °C 15.6 °C 68 % 30 km/h (39 km/h) 0 mm0 mm 20.4 °C 21.1 °C 21.8 °C 21.6 °C 12580 m 1019.5 hPa
12:30 20.4 °C 15.6 °C 74 % 24 km/h (38 km/h) 0 mm0 mm 20.4 °C 21.1 °C 21.8 °C 21.6 °C 12470 m 1019.6 hPa
12:24 20.4 °C 15.8 °C 75 % 20 km/h (28 km/h) 0 mm0 mm 20.4 °C 21.1 °C 21.8 °C 21.6 °C 12370 m 1019.6 hPa
12:18 20.1 °C 16.9 °C 82 % 20 km/h (28 km/h) 0 mm0 mm 20.4 °C 21.1 °C 21.8 °C 21.6 °C 12020 m 1019.6 hPa
12:12 19.7 °C 16.5 °C 82 % 22 km/h (28 km/h) 0 mm0 mm 20.4 °C 21.1 °C 21.8 °C 21.6 °C 11680 m 1019.8 hPa
12:06 19.2 °C 16.1 °C 82 % 25 km/h (34 km/h) 0 mm0 mm 20.3 °C 21.1 °C 21.8 °C 21.6 °C 11350 m 1019.8 hPa
12:00 19.5 °C 16 °C 80 % 29 km/h (41 km/h) 0 mm0 mm 20.3 °C 21.1 °C 21.8 °C 21.6 °C 11130 m 1019.8 hPa 8 Octas
11:54 19.6 °C 15 °C 75 % 30 km/h (41 km/h) 0 mm0 mm 20.3 °C 21.1 °C 21.8 °C 21.6 °C 11120 m 1019.9 hPa
11:48 20.5 °C 14.8 °C 70 % 25 km/h (34 km/h) 0 mm0 mm 20.4 °C 21.1 °C 21.8 °C 21.6 °C 11110 m 1019.7 hPa
11:42 20.6 °C 15.2 °C 71 % 26 km/h (38 km/h) 0 mm0 mm 20.3 °C 21.1 °C 21.8 °C 21.6 °C 11100 m 1019.6 hPa
11:36 20.5 °C 15.9 °C 75 % 29 km/h (40 km/h) 0 mm0 mm 20.3 °C 21.1 °C 21.8 °C 21.6 °C 11090 m 1019.6 hPa
11:30 19.7 °C 14.7 °C 73 % 30 km/h (40 km/h) 0 mm0 mm 20.3 °C 21.1 °C 21.8 °C 21.6 °C 11090 m 1019.7 hPa
11:24 20.1 °C 15.3 °C 74 % 29 km/h (40 km/h) 0 mm0 mm 20.3 °C 21.1 °C 21.8 °C 21.6 °C 11080 m 1019.5 hPa
11:18 19.9 °C 15.7 °C 77 % 27 km/h (40 km/h) 0 mm0 mm 20.3 °C 21.1 °C 21.8 °C 21.6 °C 15120 m 1019.6 hPa
11:12 19.4 °C 15.3 °C 77 % 28 km/h (37 km/h) 0 mm0 mm 20.2 °C 21.1 °C 21.8 °C 21.6 °C 19010 m 1019.6 hPa
11:06 19.6 °C 15 °C 75 % 28 km/h (40 km/h) 0 mm0 mm 20.2 °C 21.1 °C 21.8 °C 21.6 °C 25320 m 1019.6 hPa
11:00 19.9 °C 14.9 °C 73 % 28 km/h (42 km/h) 0 mm0 mm 20.2 °C 21.1 °C 21.8 °C 21.6 °C 22380 m 1019.5 hPa 7 Octas
10:54 19.3 °C 15.4 °C 78 % 27 km/h (36 km/h) 0 mm0 mm 20.2 °C 21.2 °C 21.8 °C 21.6 °C 14970 m 1019.6 hPa
10:48 19.8 °C 15.4 °C 76 % 25 km/h (36 km/h) 0 mm0 mm 20.2 °C 21.2 °C 21.8 °C 21.6 °C 13030 m 1019.4 hPa
10:42 19.8 °C 15.4 °C 76 % 28 km/h (36 km/h) 0 mm0 mm 20.3 °C 21.2 °C 21.8 °C 21.6 °C 13100 m 1019.3 hPa
10:36 19.6 °C 15.5 °C 77 % 29 km/h (38 km/h) 0 mm0 mm 20.2 °C 21.2 °C 21.8 °C 21.6 °C 13150 m 1019.3 hPa
10:30 19.2 °C 15.7 °C 80 % 28 km/h (38 km/h) 0 mm0 mm 20.2 °C 21.2 °C 21.8 °C 21.6 °C 15010 m 1019.3 hPa
10:24 19 °C 15.5 °C 80 % 30 km/h (38 km/h) 0 mm0 mm 20.2 °C 21.2 °C 21.8 °C 21.6 °C 22660 m 1019.4 hPa
10:18 19.4 °C 15.9 °C 80 % 28 km/h (38 km/h) 0 mm0 mm 20.2 °C 21.2 °C 21.8 °C 21.6 °C 25840 m 1019.3 hPa
10:12 19.2 °C 16.1 °C 82 % 28 km/h (38 km/h) 0 mm0 mm 20.2 °C 21.2 °C 21.8 °C 21.6 °C 25970 m 1019.2 hPa
10:06 19.2 °C 16.1 °C 82 % 26 km/h (37 km/h) 0 mm0 mm 20.2 °C 21.2 °C 21.8 °C 21.6 °C 26250 m 1019.2 hPa
10:00 19 °C 16 °C 83 % 24 km/h (31 km/h) 0 mm0 mm 20.2 °C 21.2 °C 21.8 °C 21.6 °C 26650 m 1019.1 hPa 8 Octas
09:54 18.9 °C 16.1 °C 84 % 25 km/h (41 km/h) 0 mm0 mm 20.2 °C 21.2 °C 21.8 °C 21.6 °C 27060 m 1019 hPa
09:48 18.7 °C 15.9 °C 84 % 26 km/h (41 km/h) 0 mm0 mm 20.2 °C 21.2 °C 21.8 °C 21.6 °C 27740 m 1019 hPa
09:42 18.3 °C 16.3 °C 88 % 23 km/h (31 km/h) 0 mm0 mm 20.2 °C 21.2 °C 21.8 °C 21.6 °C 25900 m 1019 hPa
09:36 18.3 °C 16.6 °C 90 % 21 km/h (29 km/h) 0 mm0 mm 20.2 °C 21.2 °C 21.8 °C 21.6 °C 29470 m 1019 hPa
09:30 18.2 °C 16.2 °C 88 % 19 km/h (28 km/h) 0 mm0 mm 20.2 °C 21.2 °C 21.8 °C 21.6 °C 36880 m 1019 hPa
09:24 18 °C 16.2 °C 89 % 21 km/h (30 km/h) 0 mm0 mm 20.2 °C 21.3 °C 21.8 °C 21.6 °C 45780 m 1019 hPa
09:18 18 °C 16 °C 88 % 22 km/h (31 km/h) 0 mm0 mm 20.3 °C 21.3 °C 21.8 °C 21.6 °C 58360 m 1019 hPa
09:12 18 °C 16.5 °C 91 % 20 km/h (27 km/h) 0 mm0 mm 20.2 °C 21.3 °C 21.8 °C 21.6 °C 57270 m 1018.9 hPa
09:06 17.8 °C 16.3 °C 91 % 21 km/h (27 km/h) 0 mm0 mm 20.2 °C 21.3 °C 21.8 °C 21.6 °C 20000 m 1018.9 hPa
09:00 17.6 °C 16.5 °C 93 % 21 km/h (28 km/h) 0 mm0.2 mm 20.3 °C 21.3 °C 21.8 °C 21.6 °C 20000 m 1018.8 hPa 6 Octas
08:54 17.4 °C 16.3 °C 93 % 21 km/h (28 km/h) 0 mm0 mm 20.3 °C 21.3 °C 21.8 °C 21.6 °C 50920 m 1018.8 hPa
08:48 17.3 °C 16.5 °C 95 % 21 km/h (28 km/h) 0 mm0 mm 20.3 °C 21.3 °C 21.8 °C 21.6 °C 40760 m 1018.8 hPa
08:42 17.1 °C 16.3 °C 95 % 21 km/h (28 km/h) 0 mm0 mm 20.3 °C 21.3 °C 21.8 °C 21.6 °C 33140 m 1018.8 hPa
08:36 17 °C 16.2 °C 95 % 21 km/h (27 km/h) 0 mm0 mm 20.3 °C 21.3 °C 21.9 °C 21.6 °C 29360 m 1018.7 hPa
08:30 16.9 °C 16.1 °C 95 % 21 km/h (27 km/h) 0 mm0 mm 20.3 °C 21.3 °C 21.8 °C 21.6 °C 29320 m 1018.6 hPa
08:24 16.9 °C 16.3 °C 96 % 18 km/h (26 km/h) 0 mm0 mm 20.3 °C 21.3 °C 21.8 °C 21.6 °C 38050 m 1018.6 hPa
08:18 16.8 °C 16 °C 95 % 17 km/h (24 km/h) 0 mm0 mm 20.4 °C 21.3 °C 21.8 °C 21.6 °C 43560 m 1018.6 hPa
08:12 16.5 °C 15.9 °C 96 % 18 km/h (26 km/h) 0 mm0 mm 20.4 °C 21.4 °C 21.9 °C 21.6 °C 17050 m 1018.5 hPa
08:06 16.3 °C 16 °C 98 % 15 km/h (22 km/h) 0.2 mm0 mm 20.4 °C 21.4 °C 21.8 °C 21.6 °C 13150 m 1018.6 hPa
08:00 16.2 °C 15.9 °C 98 % 13 km/h (19 km/h) 0 mm1.2 mm 20.4 °C 21.4 °C 21.8 °C 21.6 °C 9220 m 1018.6 hPa 8 Octas
07:54 16.3 °C 16 °C 98 % 13 km/h (18 km/h) 0 mm0 mm 20.4 °C 21.4 °C 21.8 °C 21.6 °C 11560 m 1018.6 hPa
07:48 16.2 °C 16 °C 99 % 15 km/h (25 km/h) 0 mm0 mm 20.4 °C 21.4 °C 21.8 °C 21.6 °C 4370 m 1018.5 hPa
07:42 16.1 °C 15.9 °C 99 % 17 km/h (25 km/h) 0.2 mm0 mm 20.4 °C 21.4 °C 21.8 °C 21.6 °C 2360 m 1018.5 hPa
07:36 16 °C 15.7 °C 98 % 14 km/h (21 km/h) 0.2 mm0 mm 20.4 °C 21.4 °C 21.8 °C 21.6 °C 1880 m 1018.4 hPa
07:30 16 °C 15.5 °C 97 % 11 km/h (14 km/h) 0.2 mm0 mm 20.4 °C 21.4 °C 21.9 °C 21.6 °C 1660 m 1018.3 hPa
07:24 16.1 °C 15.3 °C 95 % 12 km/h (18 km/h) 0.4 mm0 mm 20.5 °C 21.4 °C 21.9 °C 21.6 °C 1530 m 1018.2 hPa
07:18 16.3 °C 15.2 °C 93 % 14 km/h (19 km/h) 0.2 mm0 mm 20.5 °C 21.5 °C 21.9 °C 21.6 °C 3000 m 1018.2 hPa
07:12 16.3 °C 15.2 °C 93 % 15 km/h (20 km/h) 0 mm0 mm 20.5 °C 21.5 °C 21.8 °C 21.6 °C 9160 m 1018.1 hPa
07:06 16.3 °C 15.2 °C 93 % 16 km/h (22 km/h) 0 mm0 mm 20.5 °C 21.5 °C 21.8 °C 21.6 °C 8580 m 1018 hPa
07:00 16.3 °C 15.2 °C 93 % 17 km/h (23 km/h) 0 mm0.2 mm 20.5 °C 21.5 °C 21.8 °C 21.6 °C 7850 m 1018 hPa 8 Octas
06:54 16.3 °C 15.2 °C 93 % 18 km/h (26 km/h) 0 mm0 mm 20.5 °C 21.5 °C 21.8 °C 21.6 °C 7520 m 1018 hPa
06:48 16.3 °C 15.2 °C 93 % 16 km/h (21 km/h) 0 mm0 mm 20.5 °C 21.5 °C 21.8 °C 21.6 °C 16450 m 1018 hPa
06:42 16.2 °C 15.1 °C 93 % 16 km/h (21 km/h) 0 mm0 mm 20.6 °C 21.5 °C 21.8 °C 21.6 °C 19630 m 1017.9 hPa
06:36 16.1 °C 15.1 °C 94 % 16 km/h (22 km/h) 0 mm0 mm 20.6 °C 21.5 °C 21.9 °C 21.6 °C 13110 m 1017.9 hPa
06:30 16.1 °C 15.1 °C 94 % 17 km/h (24 km/h) 0 mm0 mm 20.6 °C 21.5 °C 21.9 °C 21.6 °C 6340 m 1017.8 hPa
06:24 16.2 °C 15.1 °C 93 % 17 km/h (23 km/h) 0.2 mm0 mm 20.6 °C 21.5 °C 21.8 °C 21.6 °C 5790 m 1017.9 hPa
06:18 16.2 °C 14.9 °C 92 % 16 km/h (21 km/h) 0 mm0 mm 20.6 °C 21.6 °C 21.8 °C 21.6 °C 19720 m 1017.9 hPa
06:12 16.1 °C 15 °C 93 % 15 km/h (21 km/h) 0 mm0 mm 20.6 °C 21.6 °C 21.8 °C 21.6 °C 52710 m 1017.9 hPa
06:06 16 °C 14.9 °C 93 % 15 km/h (20 km/h) 0 mm0 mm 20.7 °C 21.6 °C 21.9 °C 21.6 °C 53130 m 1017.9 hPa
06:00 16 °C 14.9 °C 93 % 15 km/h (20 km/h) 0 mm0 mm 20.7 °C 21.6 °C 21.8 °C 21.6 °C 53870 m 1017.9 hPa 8 Octas
05:54 15.9 °C 14.8 °C 93 % 16 km/h (21 km/h) 0 mm0 mm 20.7 °C 21.6 °C 21.8 °C 21.6 °C 54660 m 1018 hPa
05:48 16 °C 14.9 °C 93 % 16 km/h (21 km/h) 0 mm0 mm 20.7 °C 21.6 °C 21.9 °C 21.6 °C 54700 m 1018 hPa
05:42 15.9 °C 14.8 °C 93 % 17 km/h (21 km/h) 0 mm0 mm 20.7 °C 21.6 °C 21.8 °C 21.6 °C 53140 m 1018 hPa
05:36 15.9 °C 14.8 °C 93 % 16 km/h (21 km/h) 0 mm0 mm 20.7 °C 21.6 °C 21.8 °C 21.6 °C 53950 m 1018 hPa
05:30 15.8 °C 14.7 °C 93 % 16 km/h (20 km/h) 0 mm0 mm 20.8 °C 21.7 °C 21.8 °C 21.6 °C 53720 m 1018.1 hPa
05:24 15.9 °C 14.8 °C 93 % 16 km/h (22 km/h) 0 mm0 mm 20.7 °C 21.7 °C 21.9 °C 21.6 °C 53550 m 1018.1 hPa
05:18 16 °C 14.9 °C 93 % 17 km/h (25 km/h) 0 mm0 mm 20.8 °C 21.7 °C 21.9 °C 21.6 °C 54490 m 1018.1 hPa
05:12 15.9 °C 14.8 °C 93 % 18 km/h (25 km/h) 0 mm0 mm 20.8 °C 21.7 °C 21.9 °C 21.6 °C 54230 m 1018.2 hPa
05:06 16 °C 14.9 °C 93 % 18 km/h (23 km/h) 0 mm0 mm 20.8 °C 21.7 °C 21.8 °C 21.6 °C 54470 m 1018.1 hPa
05:00 16.1 °C 15 °C 93 % 17 km/h (23 km/h) 0 mm0 mm 20.8 °C 21.7 °C 21.9 °C 21.6 °C 54470 m 1018.1 hPa 7 Octas
04:54 16.2 °C 15.1 °C 93 % 16 km/h (24 km/h) 0 mm0 mm 20.9 °C 21.7 °C 21.8 °C 21.6 °C 52970 m 1018.1 hPa
04:48 16.1 °C 15.1 °C 94 % 15 km/h (22 km/h) 0 mm0 mm 20.9 °C 21.7 °C 21.8 °C 21.6 °C 50530 m 1018.2 hPa
04:42 16.1 °C 15.1 °C 94 % 14 km/h (22 km/h) 0 mm0 mm 20.9 °C 21.8 °C 21.9 °C 21.6 °C 50400 m 1018.2 hPa
04:36 16 °C 15 °C 94 % 15 km/h (20 km/h) 0 mm0 mm 20.9 °C 21.7 °C 21.8 °C 21.6 °C 50760 m 1018.2 hPa
04:30 16 °C 15 °C 94 % 16 km/h (20 km/h) 0 mm0 mm 20.9 °C 21.8 °C 21.8 °C 21.6 °C 49300 m 1018.2 hPa
04:24 16 °C 15.2 °C 95 % 15 km/h (20 km/h) 0 mm0 mm 20.9 °C 21.8 °C 21.9 °C 21.6 °C 49290 m 1018.1 hPa
04:18 16.1 °C 15.3 °C 95 % 16 km/h (21 km/h) 0 mm0 mm 21 °C 21.8 °C 21.8 °C 21.6 °C 50040 m 1018.1 hPa
04:12 16 °C 15.2 °C 95 % 16 km/h (21 km/h) 0 mm0 mm 21 °C 21.8 °C 21.8 °C 21.6 °C 51960 m 1018.1 hPa
04:06 16.1 °C 15.1 °C 94 % 17 km/h (22 km/h) 0 mm0 mm 21 °C 21.8 °C 21.8 °C 21.6 °C 53140 m 1018.1 hPa
04:00 16.1 °C 15.1 °C 94 % 17 km/h (22 km/h) 0 mm0 mm 21 °C 21.8 °C 21.8 °C 21.6 °C 52460 m 1018.1 hPa 8 Octas
03:54 16.2 °C 15.2 °C 94 % 17 km/h (22 km/h) 0 mm0 mm 21 °C 21.8 °C 21.8 °C 21.6 °C 51960 m 1018.1 hPa
03:48 16.2 °C 15.2 °C 94 % 17 km/h (22 km/h) 0 mm0 mm 21 °C 21.8 °C 21.8 °C 21.6 °C 53520 m 1018.1 hPa
03:42 16.2 °C 15.4 °C 95 % 17 km/h (23 km/h) 0 mm0 mm 21 °C 21.8 °C 21.8 °C 21.6 °C 53990 m 1018.1 hPa
03:36 16.2 °C 15.2 °C 94 % 17 km/h (23 km/h) 0 mm0 mm 21.1 °C 21.9 °C 21.8 °C 21.6 °C 54580 m 1018.1 hPa
03:30 16.3 °C 15.3 °C 94 % 17 km/h (23 km/h) 0 mm0 mm 21.1 °C 21.9 °C 21.9 °C 21.7 °C 55800 m 1018.1 hPa
03:24 16.3 °C 15.5 °C 95 % 15 km/h (23 km/h) 0 mm0 mm 21.1 °C 21.9 °C 21.8 °C 21.6 °C 57180 m 1018.1 hPa
03:18 16.3 °C 15.5 °C 95 % 14 km/h (19 km/h) 0 mm0 mm 21.2 °C 21.9 °C 21.8 °C 21.6 °C 55780 m 1018.2 hPa
03:12 16.3 °C 15.5 °C 95 % 14 km/h (19 km/h) 0 mm0 mm 21.2 °C 21.9 °C 21.8 °C 21.6 °C 56780 m 1018.1 hPa
03:06 16.3 °C 15.5 °C 95 % 15 km/h (21 km/h) 0 mm0 mm 21.2 °C 21.9 °C 21.8 °C 21.6 °C 56180 m 1018.1 hPa
03:00 16.2 °C 15.4 °C 95 % 17 km/h (21 km/h) 0 mm0 mm 21.2 °C 21.9 °C 21.8 °C 21.6 °C 55210 m 1018.1 hPa 7 Octas
02:54 16.2 °C 15.6 °C 96 % 17 km/h (22 km/h) 0 mm0 mm 21.2 °C 21.9 °C 21.8 °C 21.6 °C 56760 m 1018 hPa
02:48 16.1 °C 15.3 °C 95 % 18 km/h (24 km/h) 0 mm0 mm 21.3 °C 21.9 °C 21.8 °C 21.6 °C 57190 m 1018 hPa
02:42 16.1 °C 15.3 °C 95 % 19 km/h (24 km/h) 0 mm0 mm 21.3 °C 21.9 °C 21.8 °C 21.6 °C 57650 m 1017.9 hPa
02:36 16.2 °C 15.2 °C 94 % 18 km/h (22 km/h) 0 mm0 mm 21.3 °C 21.9 °C 21.8 °C 21.6 °C 58360 m 1017.9 hPa
02:30 16.3 °C 15.3 °C 94 % 19 km/h (24 km/h) 0 mm0 mm 21.3 °C 22 °C 21.8 °C 21.6 °C 59300 m 1017.9 hPa
02:24 16.4 °C 15.4 °C 94 % 19 km/h (24 km/h) 0 mm0 mm 21.3 °C 22 °C 21.8 °C 21.6 °C 59100 m 1017.8 hPa
02:18 16.4 °C 15.4 °C 94 % 20 km/h (26 km/h) 0 mm0 mm 21.4 °C 22 °C 21.8 °C 21.6 °C 59320 m 1017.8 hPa
02:12 16.5 °C 15.5 °C 94 % 21 km/h (29 km/h) 0 mm0 mm 21.3 °C 22 °C 21.8 °C 21.6 °C 59640 m 1017.8 hPa
02:06 16.5 °C 15.4 °C 93 % 20 km/h (26 km/h) 0 mm0 mm 21.4 °C 22 °C 21.8 °C 21.6 °C 59930 m 1017.8 hPa
02:00 16.6 °C 15.6 °C 94 % 21 km/h (27 km/h) 0 mm0 mm 21.4 °C 22 °C 21.8 °C 21.6 °C 59930 m 1017.8 hPa 7 Octas
01:54 16.6 °C 15.6 °C 94 % 20 km/h (27 km/h) 0 mm0 mm 21.4 °C 22 °C 21.8 °C 21.6 °C 60000 m 1017.8 hPa
01:48 16.6 °C 15.5 °C 93 % 20 km/h (26 km/h) 0 mm0 mm 21.5 °C 22 °C 21.8 °C 21.6 °C 60000 m 1017.8 hPa
01:42 16.6 °C 15.6 °C 94 % 19 km/h (26 km/h) 0 mm0 mm 21.5 °C 22 °C 21.8 °C 21.6 °C 60000 m 1017.7 hPa
01:36 16.7 °C 15.7 °C 94 % 19 km/h (27 km/h) 0 mm0 mm 21.5 °C 22 °C 21.8 °C 21.6 °C 60000 m 1017.8 hPa
01:30 16.8 °C 15.8 °C 94 % 20 km/h (27 km/h) 0 mm0 mm 21.5 °C 22.1 °C 21.8 °C 21.6 °C 60000 m 1017.7 hPa
01:24 16.7 °C 15.9 °C 95 % 19 km/h (27 km/h) 0 mm0 mm 21.5 °C 22.1 °C 21.8 °C 21.6 °C 60000 m 1017.8 hPa
01:18 16.6 °C 15.6 °C 94 % 19 km/h (26 km/h) 0 mm0 mm 21.5 °C 22 °C 21.8 °C 21.6 °C 60000 m 1017.7 hPa
01:12 16.7 °C 15.7 °C 94 % 18 km/h (25 km/h) 0 mm0 mm 21.5 °C 22.1 °C 21.8 °C 21.7 °C 60000 m 1017.6 hPa
01:06 16.8 °C 15.8 °C 94 % 18 km/h (25 km/h) 0 mm0 mm 21.6 °C 22.1 °C 21.8 °C 21.6 °C 60000 m 1017.6 hPa
01:00 16.8 °C 15.8 °C 94 % 19 km/h (24 km/h) 0 mm0 mm 21.6 °C 22.1 °C 21.8 °C 21.6 °C 60000 m 1017.5 hPa
00:54 16.8 °C 16 °C 95 % 19 km/h (24 km/h) 0 mm0 mm 21.6 °C 22.1 °C 21.8 °C 21.6 °C 60000 m 1017.5 hPa
00:48 16.9 °C 16.1 °C 95 % 19 km/h (26 km/h) 0 mm0 mm 21.6 °C 22.1 °C 21.8 °C 21.6 °C 60000 m 1017.5 hPa
00:42 16.9 °C 16.3 °C 96 % 19 km/h (26 km/h) 0 mm0 mm 21.6 °C 22.1 °C 21.8 °C 21.6 °C 60000 m 1017.5 hPa
00:36 17 °C 16.2 °C 95 % 17 km/h (26 km/h) 0 mm0 mm 21.7 °C 22.1 °C 21.8 °C 21.7 °C 60000 m 1017.5 hPa
00:30 17 °C 16.2 °C 95 % 17 km/h (22 km/h) 0 mm0 mm 21.7 °C 22.1 °C 21.8 °C 21.6 °C 60000 m 1017.4 hPa
00:24 17 °C 16.2 °C 95 % 18 km/h (24 km/h) 0 mm0 mm 21.7 °C 22.1 °C 21.8 °C 21.7 °C 60000 m 1017.4 hPa
00:18 17.1 °C 16.5 °C 96 % 19 km/h (25 km/h) 0 mm0 mm 21.7 °C 22.2 °C 21.8 °C 21.7 °C 60000 m 1017.4 hPa
00:12 17 °C 16.4 °C 96 % 18 km/h (25 km/h) 0 mm0 mm 21.8 °C 22.1 °C 21.8 °C 21.6 °C 60000 m 1017.3 hPa
00:06 17 °C 16.4 °C 96 % 18 km/h (24 km/h) 0 mm0 mm 21.8 °C 22.2 °C 21.8 °C 21.7 °C 60000 m 1017.3 hPa
00:00 17 °C 16.4 °C 96 % 16 km/h (22 km/h) 0 mm0 mm 21.8 °C 22.2 °C 21.8 °C 21.7 °C 60000 m 1017.2 hPa

Données via Météo-France

Relevés météo à Avord

Cette page rassemble les observations de la station de Avord : température, humidité, vent, précipitations et pression atmosphérique. Les graphiques facilitent le suivi de la journée, tandis que le tableau donne accès aux mesures horaires et infra-horaires disponibles.

Pour replacer ces mesures dans leur contexte, consultez la climatologie de Avord ainsi que ses normales et records. Retrouvez aussi la carte des observations météo en temps réel.